Terminal Aerodrome Forecast
Issued by NWS

Home | Current Version | Previous Version | Text Only | Print | Product List | Glossary On
Versions: 1 2 3 4 5 6 7 8 9 10 11 12 13
000
FTUS45 KABQ 291700 RRA
TAFAEG
TAF
KAEG 291743Z 2918/3018 12012G20KT P6SM SCT080 BKN120
     FM291900 15012G20KT P6SM SCT060 BKN100
     FM300100 10015G22KT P6SM VCSH SCT030 OVC080
      TEMPO 3006/3010 5SM -RASN OVC030
     FM301000 10015G25KT 2SM -RASN BR OVC025
     FM301700 08013KT 1SM -RASN BR OVC015=

USA.gov is the U.S. government's official web portal to all federal, state and local government web resources and services.